Time;durP1;ratioP1;P1;durP2;ratioP2;P2;SDS_P1;SDS_P2;PMS_P1;PMS_P2;Temp;Humidity;BMP_temperature;BMP_pressure;BME280_temperature;BME280_humidity;BME280_pressure;Samples;Min_cycle;Max_cycle;Signal;HPM_P1;HPM_P2
2022/03/18 00:00:46;;;;;;;16.65;7.18;;;;;;;;;;8390821;28;20052;-76
2022/03/18 00:04:55;;;;;;;13.02;6.55;;;;;;;;;;8367638;28;20080;-76
2022/03/18 00:09:07;;;;;;;12.10;6.43;;;;;;;;;;8387636;28;20454;-76
2022/03/18 00:13:12;;;;;;;13.80;6.75;;;;;;;;;;8386660;28;20107;-77
2022/03/18 00:17:15;;;;;;;13.30;6.57;;;;;;;;;;8394355;28;20427;-77
2022/03/18 00:21:17;;;;;;;17.98;7.28;;;;;;;;;;8395746;28;20073;-77
2022/03/18 00:25:22;;;;;;;13.05;6.68;;;;;;;;;;8387850;28;20052;-78
2022/03/18 00:29:25;;;;;;;12.98;6.68;;;;;;;;;;8381680;28;20048;-77
2022/03/18 00:33:33;;;;;;;15.73;6.07;;;;;;;;;;8392915;28;20507;-77
2022/03/18 00:37:36;;;;;;;15.85;7.22;;;;;;;;;;8391480;28;20442;-77
2022/03/18 00:41:41;;;;;;;12.73;7.10;;;;;;;;;;8399519;28;20044;-77
2022/03/18 00:45:43;;;;;;;15.75;6.53;;;;;;;;;;8379880;28;20071;-77
2022/03/18 00:54:06;;;;;;;15.82;6.82;;;;;;;;;;8368162;28;20045;-77
2022/03/18 00:58:10;;;;;;;16.35;7.18;;;;;;;;;;8368494;28;20562;-77
2022/03/18 01:02:13;;;;;;;16.70;7.40;;;;;;;;;;8368313;28;20385;-77
2022/03/18 01:06:15;;;;;;;15.40;7.70;;;;;;;;;;8368352;28;20404;-75
2022/03/18 01:10:18;;;;;;;13.00;6.68;;;;;;;;;;8367759;28;20041;-77
2022/03/18 01:14:23;;;;;;;14.50;6.75;;;;;;;;;;8367537;28;20507;-77
2022/03/18 01:18:25;;;;;;;15.05;6.13;;;;;;;;;;8367144;28;20057;-77
2022/03/18 01:22:28;;;;;;;17.23;6.95;;;;;;;;;;8367722;28;20044;-78
2022/03/18 01:26:30;;;;;;;17.50;7.35;;;;;;;;;;8367369;28;20041;-76
2022/03/18 01:30:34;;;;;;;12.32;6.50;;;;;;;;;;8366970;28;20060;-76
2022/03/18 01:34:37;;;;;;;12.07;6.05;;;;;;;;;;8366920;28;20056;-77
2022/03/18 01:38:39;;;;;;;13.40;6.75;;;;;;;;;;8366996;28;20115;-77
2022/03/18 01:42:42;;;;;;;16.35;6.43;;;;;;;;;;8366308;28;20059;-77
2022/03/18 01:46:46;;;;;;;16.33;7.18;;;;;;;;;;8366244;28;20045;-76
2022/03/18 01:50:48;;;;;;;16.00;7.22;;;;;;;;;;8365906;28;20045;-77
2022/03/18 01:54:51;;;;;;;17.67;7.10;;;;;;;;;;8365736;28;20052;-76
2022/03/18 01:58:54;;;;;;;15.77;7.30;;;;;;;;;;8365668;28;20091;-77
2022/03/18 02:02:59;;;;;;;17.27;7.63;;;;;;;;;;8366262;28;20057;-75
2022/03/18 02:07:02;;;;;;;16.50;7.10;;;;;;;;;;8366202;28;20087;-77
2022/03/18 02:11:07;;;;;;;18.38;8.30;;;;;;;;;;8365828;28;20052;-76
2022/03/18 02:15:10;;;;;;;22.55;7.47;;;;;;;;;;8365373;28;20072;-76
2022/03/18 02:19:15;;;;;;;19.17;7.50;;;;;;;;;;8365008;28;20071;-77
2022/03/18 02:23:19;;;;;;;36.33;11.68;;;;;;;;;;8365286;28;20107;-76
2022/03/18 02:27:22;;;;;;;20.50;8.38;;;;;;;;;;8365226;28;20045;-76
2022/03/18 02:31:29;;;;;;;14.57;6.88;;;;;;;;;;8365118;28;20052;-77
2022/03/18 02:35:32;;;;;;;19.33;7.72;;;;;;;;;;8364718;28;20041;-76
2022/03/18 02:39:36;;;;;;;14.90;6.30;;;;;;;;;;8364867;28;20049;-77
2022/03/18 02:43:39;;;;;;;12.43;5.80;;;;;;;;;;8392101;28;20058;-77
2022/03/18 02:47:42;;;;;;;11.93;6.03;;;;;;;;;;8398009;28;20496;-76
2022/03/18 02:51:45;;;;;;;11.85;5.85;;;;;;;;;;8397314;28;20045;-76
2022/03/18 02:55:49;;;;;;;16.20;6.65;;;;;;;;;;8397846;28;20477;-76
2022/03/18 02:59:51;;;;;;;16.20;6.72;;;;;;;;;;8397282;28;20055;-76
2022/03/18 03:03:54;;;;;;;16.05;6.70;;;;;;;;;;8397243;28;20052;-77
2022/03/18 03:08:01;;;;;;;12.43;5.68;;;;;;;;;;8397703;28;20051;-77
2022/03/18 03:12:06;;;;;;;15.68;6.43;;;;;;;;;;8397003;28;20107;-77
2022/03/18 03:16:09;;;;;;;15.00;6.50;;;;;;;;;;8397418;28;20047;-77
2022/03/18 03:20:12;;;;;;;10.02;5.85;;;;;;;;;;8396692;28;20538;-78
2022/03/18 03:24:15;;;;;;;13.32;6.18;;;;;;;;;;8396899;28;20052;-76
2022/03/18 03:28:20;;;;;;;15.15;6.50;;;;;;;;;;8397181;28;20124;-77
2022/03/18 03:32:22;;;;;;;14.40;5.80;;;;;;;;;;8396724;28;20041;-77
2022/03/18 03:36:25;;;;;;;11.40;5.97;;;;;;;;;;8397282;28;20056;-77
2022/03/18 03:40:28;;;;;;;12.43;6.05;;;;;;;;;;8397353;28;20106;-76
2022/03/18 03:44:32;;;;;;;12.10;6.13;;;;;;;;;;8396525;28;20103;-75
2022/03/18 03:48:35;;;;;;;18.67;7.20;;;;;;;;;;8397433;28;20534;-77
2022/03/18 03:52:38;;;;;;;14.07;6.15;;;;;;;;;;8396950;28;20045;-76
2022/03/18 03:56:40;;;;;;;14.70;5.88;;;;;;;;;;8396396;28;20127;-76
2022/03/18 04:00:44;;;;;;;12.60;6.25;;;;;;;;;;8397005;28;20464;-76
2022/03/18 04:04:47;;;;;;;11.73;6.03;;;;;;;;;;8399196;28;20048;-77
2022/03/18 04:08:49;;;;;;;12.18;6.22;;;;;;;;;;8402542;28;20118;-78
2022/03/18 04:12:52;;;;;;;15.43;7.75;;;;;;;;;;8402770;28;20049;-77
2022/03/18 04:16:56;;;;;;;16.98;7.07;;;;;;;;;;8402874;28;20061;-77
2022/03/18 04:20:59;;;;;;;11.20;5.53;;;;;;;;;;8402247;28;20074;-76
2022/03/18 04:25:01;;;;;;;13.95;6.10;;;;;;;;;;8402544;28;20110;-76
2022/03/18 04:29:04;;;;;;;11.50;6.55;;;;;;;;;;8402855;28;20440;-77
2022/03/18 04:33:08;;;;;;;11.98;6.55;;;;;;;;;;8401833;28;20052;-77
2022/03/18 04:37:11;;;;;;;15.32;6.70;;;;;;;;;;8402316;28;20040;-78
2022/03/18 04:41:13;;;;;;;14.98;6.85;;;;;;;;;;8401748;28;20044;-76
2022/03/18 04:45:16;;;;;;;11.50;5.55;;;;;;;;;;8397516;28;20075;-77
2022/03/18 04:49:20;;;;;;;15.45;7.55;;;;;;;;;;8402182;28;20454;-77
2022/03/18 04:53:22;;;;;;;12.10;6.32;;;;;;;;;;8401861;28;20052;-77
2022/03/18 04:57:25;;;;;;;11.95;6.03;;;;;;;;;;8400774;28;20048;-76
2022/03/18 05:01:28;;;;;;;12.32;5.57;;;;;;;;;;8401448;28;20048;-77
2022/03/18 05:05:31;;;;;;;12.52;6.03;;;;;;;;;;8401281;28;20784;-77
2022/03/18 05:09:34;;;;;;;11.43;6.13;;;;;;;;;;8400935;28;20040;-77
2022/03/18 05:13:38;;;;;;;11.88;5.78;;;;;;;;;;8400515;28;20063;-77
2022/03/18 05:17:42;;;;;;;11.73;6.82;;;;;;;;;;8400531;28;20114;-77
2022/03/18 05:21:46;;;;;;;13.57;5.88;;;;;;;;;;8388959;28;20053;-77
2022/03/18 05:25:49;;;;;;;13.57;5.75;;;;;;;;;;8367608;28;20049;-76
2022/03/18 05:29:52;;;;;;;15.05;8.55;;;;;;;;;;8367316;28;20056;-78
2022/03/18 05:33:55;;;;;;;13.75;7.47;;;;;;;;;;8365390;28;20467;-77
2022/03/18 05:37:59;;;;;;;20.70;8.77;;;;;;;;;;8367206;28;20053;-77
2022/03/18 05:42:02;;;;;;;11.63;6.00;;;;;;;;;;8367032;28;20488;-76
2022/03/18 05:46:05;;;;;;;13.35;6.68;;;;;;;;;;8366315;28;20052;-77
2022/03/18 05:50:15;;;;;;;13.13;6.30;;;;;;;;;;8367216;28;20414;-76
2022/03/18 05:54:19;;;;;;;11.70;6.22;;;;;;;;;;8366745;28;20493;-77
2022/03/18 05:58:24;;;;;;;16.80;8.15;;;;;;;;;;8335024;28;20052;-77
2022/03/18 06:02:29;;;;;;;21.13;8.40;;;;;;;;;;8358645;28;20045;-77
2022/03/18 06:06:36;;;;;;;23.95;9.60;;;;;;;;;;8364797;28;20045;-78
2022/03/18 06:15:06;;;;;;;43.33;12.63;;;;;;;;;;8365059;28;20072;-78
2022/03/18 06:19:13;;;;;;;22.42;8.85;;;;;;;;;;8378534;28;20056;-77
2022/03/18 06:23:21;;;;;;;16.90;7.32;;;;;;;;;;8330724;28;20397;-77
2022/03/18 06:27:31;;;;;;;27.83;14.93;;;;;;;;;;8362616;28;20533;-77
2022/03/18 06:31:39;;;;;;;37.05;14.30;;;;;;;;;;8388178;28;20412;-78
2022/03/18 06:35:46;;;;;;;17.90;8.10;;;;;;;;;;8372926;28;20071;-77
2022/03/18 06:39:53;;;;;;;22.13;9.05;;;;;;;;;;8380545;28;21408;-77
2022/03/18 06:43:59;;;;;;;26.85;11.23;;;;;;;;;;8358283;28;20095;-77
2022/03/18 06:48:03;;;;;;;30.23;13.15;;;;;;;;;;8351888;28;20485;-78
2022/03/18 06:52:12;;;;;;;19.75;8.55;;;;;;;;;;8357791;28;20041;-78
2022/03/18 06:56:22;;;;;;;21.80;11.38;;;;;;;;;;8369944;28;20099;-77
2022/03/18 07:00:30;;;;;;;19.35;10.13;;;;;;;;;;8370122;28;20048;-77
2022/03/18 07:04:36;;;;;;;13.35;7.63;;;;;;;;;;8352078;28;20045;-79
2022/03/18 07:08:44;;;;;;;14.23;8.25;;;;;;;;;;8367058;28;20409;-76
2022/03/18 07:12:54;;;;;;;19.60;8.13;;;;;;;;;;8363166;28;20048;-77
2022/03/18 07:21:43;;;;;;;18.63;8.75;;;;;;;;;;8395844;28;20067;-76
2022/03/18 07:25:53;;;;;;;13.00;7.40;;;;;;;;;;8394912;28;20048;-77
2022/03/18 07:30:05;;;;;;;12.93;6.90;;;;;;;;;;8392211;28;20036;-77
2022/03/18 07:34:12;;;;;;;14.25;7.43;;;;;;;;;;8384109;28;20051;-77
2022/03/18 07:38:20;;;;;;;11.35;6.25;;;;;;;;;;8365325;28;20045;-76
2022/03/18 07:42:29;;;;;;;12.60;7.05;;;;;;;;;;8389185;28;20051;-76
2022/03/18 07:46:39;;;;;;;29.80;12.35;;;;;;;;;;8403334;28;20056;-76
2022/03/18 07:50:46;;;;;;;10.43;6.13;;;;;;;;;;8403059;28;20238;-76
2022/03/18 07:54:57;;;;;;;14.95;5.78;;;;;;;;;;8402636;28;20093;-75
2022/03/18 07:59:02;;;;;;;12.48;6.10;;;;;;;;;;8402559;28;20044;-75
2022/03/18 08:03:09;;;;;;;47.92;21.10;;;;;;;;;;8398247;28;20412;-75
2022/03/18 08:07:14;;;;;;;8.60;5.15;;;;;;;;;;8402384;28;20056;-76
2022/03/18 08:11:20;;;;;;;10.77;5.95;;;;;;;;;;8401342;28;20053;-75
2022/03/18 08:15:28;;;;;;;20.48;9.02;;;;;;;;;;8393530;28;20048;-75
2022/03/18 08:19:32;;;;;;;12.52;7.38;;;;;;;;;;8400737;28;20049;-77
2022/03/18 08:23:39;;;;;;;20.05;9.90;;;;;;;;;;8391876;28;20052;-76
2022/03/18 08:27:44;;;;;;;22.55;11.05;;;;;;;;;;8390167;28;20049;-77
2022/03/18 08:31:46;;;;;;;8.77;5.20;;;;;;;;;;8402017;28;20553;-77
2022/03/18 08:35:55;;;;;;;17.98;5.63;;;;;;;;;;8401392;28;20430;-76
2022/03/18 08:40:03;;;;;;;12.23;5.78;;;;;;;;;;8394223;28;20044;-76
2022/03/18 08:44:10;;;;;;;12.15;7.25;;;;;;;;;;8400834;28;20040;-76
2022/03/18 08:48:14;;;;;;;10.90;5.43;;;;;;;;;;8401351;28;20048;-75
2022/03/18 08:52:19;;;;;;;11.27;6.50;;;;;;;;;;8399987;28;20079;-76
2022/03/18 08:56:25;;;;;;;11.63;7.35;;;;;;;;;;8382964;28;20056;-76
2022/03/18 09:00:30;;;;;;;7.55;4.50;;;;;;;;;;8399776;28;20468;-75
2022/03/18 09:04:35;;;;;;;30.98;18.15;;;;;;;;;;8399729;28;20148;-77
2022/03/18 09:08:40;;;;;;;17.65;11.35;;;;;;;;;;8379791;28;20052;-76
2022/03/18 09:12:55;;;;;;;13.90;8.20;;;;;;;;;;8369731;28;20404;-76
2022/03/18 09:17:01;;;;;;;9.20;5.82;;;;;;;;;;8400135;28;20059;-76
2022/03/18 09:21:04;;;;;;;12.38;6.45;;;;;;;;;;8399826;28;20158;-74
2022/03/18 09:25:11;;;;;;;14.40;8.63;;;;;;;;;;8392021;28;20044;-75
2022/03/18 09:29:24;;;;;;;11.35;5.60;;;;;;;;;;8387926;28;20048;-76
2022/03/18 09:33:29;;;;;;;8.23;5.03;;;;;;;;;;8366323;28;20053;-78
2022/03/18 09:37:34;;;;;;;9.82;5.63;;;;;;;;;;8367018;28;20476;-76
2022/03/18 09:41:37;;;;;;;11.98;6.35;;;;;;;;;;8391370;28;20048;-76
2022/03/18 09:45:42;;;;;;;40.58;31.30;;;;;;;;;;8397613;28;20052;-76
2022/03/18 09:49:46;;;;;;;11.82;6.13;;;;;;;;;;8398844;28;20411;-76
2022/03/18 09:53:49;;;;;;;59.75;18.30;;;;;;;;;;8397854;28;20072;-77
2022/03/18 09:57:58;;;;;;;13.88;6.65;;;;;;;;;;8394190;28;20499;-76
2022/03/18 10:02:24;;;;;;;9.13;5.75;;;;;;;;;;8398574;28;20386;-76
2022/03/18 10:06:29;;;;;;;11.18;5.80;;;;;;;;;;8398517;28;20515;-77
2022/03/18 10:10:47;;;;;;;12.68;6.80;;;;;;;;;;8398489;28;20049;-77
2022/03/18 10:15:07;;;;;;;13.38;6.40;;;;;;;;;;8398535;28;20052;-78
2022/03/18 10:19:14;;;;;;;17.63;7.53;;;;;;;;;;8398433;28;20052;-77
2022/03/18 10:23:23;;;;;;;10.18;5.45;;;;;;;;;;8398370;28;20451;-77
2022/03/18 10:27:27;;;;;;;17.65;7.15;;;;;;;;;;8398204;28;20495;-76
2022/03/18 10:31:31;;;;;;;11.80;5.93;;;;;;;;;;8397386;28;20102;-76
2022/03/18 10:40:03;;;;;;;13.07;6.93;;;;;;;;;;8397215;28;20098;-77
2022/03/18 10:44:12;;;;;;;9.40;4.70;;;;;;;;;;8397454;28;20564;-76
2022/03/18 10:48:18;;;;;;;12.63;6.07;;;;;;;;;;8397768;28;20106;-76
2022/03/18 10:52:24;;;;;;;11.82;6.22;;;;;;;;;;8397011;28;20052;-77
2022/03/18 10:56:28;;;;;;;9.13;4.47;;;;;;;;;;8397715;28;20044;-76
2022/03/18 11:00:34;;;;;;;9.68;4.72;;;;;;;;;;8397518;28;20051;-77
2022/03/18 11:04:37;;;;;;;9.65;4.43;;;;;;;;;;8397436;28;20048;-76
2022/03/18 11:08:47;;;;;;;11.20;4.18;;;;;;;;;;8396722;28;20048;-76
2022/03/18 11:12:50;;;;;;;10.80;4.88;;;;;;;;;;8396629;28;20120;-76
2022/03/18 11:16:54;;;;;;;9.63;5.05;;;;;;;;;;8397231;28;20491;-78
2022/03/18 11:21:01;;;;;;;11.10;4.65;;;;;;;;;;8396470;28;20470;-77
2022/03/18 11:25:11;;;;;;;9.30;4.50;;;;;;;;;;8396532;28;20051;-77
2022/03/18 11:29:20;;;;;;;13.00;4.28;;;;;;;;;;8395937;28;20400;-77
2022/03/18 11:33:23;;;;;;;11.82;5.82;;;;;;;;;;8381798;28;20052;-76
2022/03/18 11:37:29;;;;;;;11.88;5.50;;;;;;;;;;8392529;28;20064;-77
2022/03/18 11:41:55;;;;;;;11.73;5.15;;;;;;;;;;8385681;28;20539;-77
2022/03/18 11:46:21;;;;;;;8.60;4.82;;;;;;;;;;8391901;28;20051;-77
2022/03/18 11:50:39;;;;;;;15.57;7.45;;;;;;;;;;8372356;28;20052;-76
2022/03/18 11:54:51;;;;;;;9.90;5.05;;;;;;;;;;8382920;28;20052;-76
2022/03/18 11:59:00;;;;;;;23.47;8.40;;;;;;;;;;8403204;28;20090;-76
2022/03/18 12:03:04;;;;;;;11.45;5.47;;;;;;;;;;8382120;28;20044;-76
2022/03/18 12:07:28;;;;;;;19.88;8.35;;;;;;;;;;8388860;28;20051;-76
2022/03/18 12:11:35;;;;;;;10.82;5.30;;;;;;;;;;8382233;28;20399;-76
2022/03/18 12:15:50;;;;;;;18.58;6.57;;;;;;;;;;8395731;28;20075;-76
2022/03/18 12:19:57;;;;;;;21.48;7.22;;;;;;;;;;8395206;28;20055;-75
2022/03/18 12:24:05;;;;;;;13.15;6.80;;;;;;;;;;8395896;28;20140;-76
2022/03/18 12:28:13;;;;;;;12.75;6.43;;;;;;;;;;8401684;28;20045;-77
2022/03/18 12:32:17;;;;;;;8.85;4.95;;;;;;;;;;8401762;28;20040;-77
2022/03/18 12:36:25;;;;;;;13.30;6.30;;;;;;;;;;8399172;28;20082;-77
2022/03/18 12:40:28;;;;;;;12.38;5.85;;;;;;;;;;8402109;28;20500;-76
2022/03/18 12:44:32;;;;;;;12.60;5.75;;;;;;;;;;8401170;28;20048;-77
2022/03/18 12:48:36;;;;;;;11.38;6.10;;;;;;;;;;8400041;28;20041;-77
2022/03/18 12:52:45;;;;;;;35.72;18.88;;;;;;;;;;8401068;28;20132;-78
2022/03/18 12:56:48;;;;;;;10.65;5.13;;;;;;;;;;8401351;28;20123;-77
2022/03/18 13:00:54;;;;;;;10.68;5.20;;;;;;;;;;8401387;28;20048;-76
2022/03/18 13:05:02;;;;;;;12.38;5.57;;;;;;;;;;8400643;28;20048;-76
2022/03/18 13:09:13;;;;;;;10.50;4.97;;;;;;;;;;8400628;28;20044;-77
2022/03/18 13:13:16;;;;;;;14.50;7.53;;;;;;;;;;8400805;28;20051;-77
2022/03/18 13:17:23;;;;;;;17.50;6.78;;;;;;;;;;8400102;28;20429;-77
2022/03/18 13:21:29;;;;;;;12.35;5.72;;;;;;;;;;8400099;28;20483;-77
2022/03/18 13:25:36;;;;;;;24.10;7.97;;;;;;;;;;8400618;28;20049;-76
2022/03/18 13:34:03;;;;;;;21.77;8.87;;;;;;;;;;8383446;28;20037;-77
2022/03/18 13:38:15;;;;;;;62.30;28.25;;;;;;;;;;8378046;28;20305;-76
2022/03/18 13:42:27;;;;;;;34.65;16.88;;;;;;;;;;8382971;28;20079;-76
2022/03/18 13:46:34;;;;;;;9.82;5.30;;;;;;;;;;8384538;28;20221;-77
2022/03/18 13:50:49;;;;;;;152.77;40.95;;;;;;;;;;8388070;28;20129;-76
2022/03/18 13:55:11;;;;;;;160.82;45.03;;;;;;;;;;8359332;28;20041;-75
2022/03/18 13:59:18;;;;;;;53.03;16.20;;;;;;;;;;8393561;28;20040;-76
2022/03/18 14:03:32;;;;;;;25.25;8.98;;;;;;;;;;8383674;28;20495;-77
2022/03/18 14:07:46;;;;;;;19.38;8.82;;;;;;;;;;8390771;28;20052;-77
2022/03/18 14:12:10;;;;;;;18.50;7.28;;;;;;;;;;8390180;28;20044;-75
2022/03/18 14:16:16;;;;;;;25.10;8.88;;;;;;;;;;8381250;28;20135;-76
2022/03/18 14:20:22;;;;;;;8.75;5.32;;;;;;;;;;8392513;28;20052;-77
2022/03/18 14:24:29;;;;;;;32.47;11.02;;;;;;;;;;8388817;28;20123;-78
2022/03/18 14:28:36;;;;;;;146.95;37.40;;;;;;;;;;8390407;28;20423;-76
2022/03/18 14:32:47;;;;;;;11.15;5.50;;;;;;;;;;8389050;28;20067;-75
2022/03/18 14:37:15;;;;;;;70.55;23.88;;;;;;;;;;8378183;28;20107;-76
2022/03/18 14:41:26;;;;;;;10.55;5.30;;;;;;;;;;8379912;28;20505;-76
2022/03/18 14:45:51;;;;;;;84.80;28.63;;;;;;;;;;8382737;28;20040;-75
2022/03/18 14:49:56;;;;;;;21.25;9.90;;;;;;;;;;8389434;28;20044;-76
2022/03/18 14:54:00;;;;;;;11.13;4.93;;;;;;;;;;8389429;28;20048;-75
2022/03/18 14:58:05;;;;;;;33.97;13.48;;;;;;;;;;8392318;28;20048;-77
2022/03/18 15:02:10;;;;;;;44.83;14.05;;;;;;;;;;8367201;28;20052;-76
2022/03/18 15:06:45;;;;;;;58.53;16.05;;;;;;;;;;8377754;28;20048;-76
2022/03/18 15:11:05;;;;;;;31.30;12.53;;;;;;;;;;8391107;28;20052;-76
2022/03/18 15:15:24;;;;;;;42.60;10.30;;;;;;;;;;8393754;28;20714;-77
2022/03/18 15:19:39;;;;;;;55.03;14.52;;;;;;;;;;8388966;28;20139;-76
2022/03/18 15:24:18;;;;;;;26.13;10.23;;;;;;;;;;8391425;28;20050;-76
2022/03/18 15:29:13;;;;;;;14.98;7.88;;;;;;;;;;8405004;28;20095;-76
2022/03/18 15:33:37;;;;;;;67.22;20.30;;;;;;;;;;8389208;28;20057;-76
2022/03/18 15:43:28;;;;;;;17.33;6.50;;;;;;;;;;8409101;28;20056;-76
2022/03/18 15:53:01;;;;;;;37.25;15.82;;;;;;;;;;8391156;28;20076;-76
2022/03/18 15:57:15;;;;;;;17.55;8.93;;;;;;;;;;8395500;28;20048;-75
2022/03/18 16:01:23;;;;;;;40.92;15.52;;;;;;;;;;8396034;28;20044;-74
2022/03/18 16:05:35;;;;;;;39.65;13.48;;;;;;;;;;8400251;28;20209;-76
2022/03/18 16:09:40;;;;;;;27.27;12.00;;;;;;;;;;8402042;28;20044;-74
2022/03/18 16:19:30;;;;;;;11.20;6.78;;;;;;;;;;8029177;27;13798034;-76
2022/03/18 16:23:47;;;;;;;13.75;7.53;;;;;;;;;;8487772;28;20088;-76
2022/03/18 16:28:08;;;;;;;30.13;9.75;;;;;;;;;;8476523;28;20058;-76
2022/03/18 16:32:26;;;;;;;18.40;8.98;;;;;;;;;;8480087;28;20063;-77
2022/03/18 16:36:45;;;;;;;14.68;7.32;;;;;;;;;;8487501;28;20498;-77
2022/03/18 16:40:57;;;;;;;20.63;11.52;;;;;;;;;;8487286;28;20039;-77
2022/03/18 16:45:10;;;;;;;17.17;7.93;;;;;;;;;;8485374;28;20046;-75
2022/03/18 16:49:30;;;;;;;31.08;13.25;;;;;;;;;;8487203;28;20039;-76
2022/03/18 16:53:39;;;;;;;24.17;10.27;;;;;;;;;;8481042;28;20047;-78
2022/03/18 16:57:43;;;;;;;25.70;11.27;;;;;;;;;;8486838;28;20059;-75
2022/03/18 17:01:50;;;;;;;23.17;10.13;;;;;;;;;;8484387;28;20556;-75
2022/03/18 17:05:55;;;;;;;26.30;10.23;;;;;;;;;;8490175;28;20140;-77
2022/03/18 17:10:10;;;;;;;28.55;11.85;;;;;;;;;;8485604;28;20055;-77
2022/03/18 17:14:16;;;;;;;17.45;8.80;;;;;;;;;;8487830;28;20687;-76
2022/03/18 17:18:19;;;;;;;24.30;8.95;;;;;;;;;;8480023;28;20146;-77
2022/03/18 17:22:24;;;;;;;36.65;16.75;;;;;;;;;;8483480;28;20050;-76
2022/03/18 17:26:36;;;;;;;29.30;12.40;;;;;;;;;;8478585;28;20047;-77
2022/03/18 17:30:47;;;;;;;40.13;13.65;;;;;;;;;;8465311;28;20040;-77
2022/03/18 17:34:53;;;;;;;26.42;10.23;;;;;;;;;;8459631;28;20089;-77
2022/03/18 17:39:00;;;;;;;20.77;8.98;;;;;;;;;;8464173;28;20152;-77
2022/03/18 17:43:09;;;;;;;22.35;8.48;;;;;;;;;;8465651;28;20052;-76
2022/03/18 17:47:18;;;;;;;17.60;7.90;;;;;;;;;;8466125;28;20536;-76
2022/03/18 17:51:30;;;;;;;16.30;7.15;;;;;;;;;;8459714;28;20055;-76
2022/03/18 17:55:36;;;;;;;13.88;7.10;;;;;;;;;;8463355;28;20518;-77
2022/03/18 17:59:43;;;;;;;15.90;7.35;;;;;;;;;;8460481;28;20468;-76
2022/03/18 18:03:48;;;;;;;15.88;8.30;;;;;;;;;;8464186;28;20047;-77
2022/03/18 18:07:51;;;;;;;15.68;7.85;;;;;;;;;;8463495;28;20040;-76
2022/03/18 18:11:55;;;;;;;15.35;6.80;;;;;;;;;;8455904;28;20131;-77
2022/03/18 18:16:06;;;;;;;21.30;8.93;;;;;;;;;;8456915;28;20051;-77
2022/03/18 18:24:38;;;;;;;17.83;7.53;;;;;;;;;;8460215;28;20040;-77
2022/03/18 18:28:49;;;;;;;16.98;7.93;;;;;;;;;;8464549;28;20522;-77
2022/03/18 18:33:01;;;;;;;64.07;18.88;;;;;;;;;;8461235;28;20479;-75
2022/03/18 18:37:12;;;;;;;52.45;17.98;;;;;;;;;;8451489;28;20047;-77
2022/03/18 18:41:19;;;;;;;35.92;13.35;;;;;;;;;;8455709;28;20044;-77
2022/03/18 18:45:27;;;;;;;105.88;28.63;;;;;;;;;;8459110;28;20043;-75
2022/03/18 18:49:48;;;;;;;56.55;18.77;;;;;;;;;;8459743;28;20036;-76
2022/03/18 18:54:00;;;;;;;101.97;27.10;;;;;;;;;;8457693;28;20090;-76
2022/03/18 18:58:07;;;;;;;51.38;18.05;;;;;;;;;;8461899;28;20139;-77
2022/03/18 19:02:18;;;;;;;33.25;13.27;;;;;;;;;;8448406;28;20040;-76
2022/03/18 19:06:27;;;;;;;31.95;13.75;;;;;;;;;;8459231;28;20407;-77
2022/03/18 19:10:35;;;;;;;38.80;15.85;;;;;;;;;;8450352;28;20430;-76
2022/03/18 19:14:49;;;;;;;146.50;35.45;;;;;;;;;;8443766;28;20527;-76
2022/03/18 19:19:01;;;;;;;231.73;51.58;;;;;;;;;;8449088;28;20414;-75
2022/03/18 19:23:16;;;;;;;145.52;40.65;;;;;;;;;;8444106;28;20044;-74
2022/03/18 19:27:30;;;;;;;54.35;19.42;;;;;;;;;;8444778;28;20048;-76
2022/03/18 19:36:09;;;;;;;77.10;27.45;;;;;;;;;;8444930;28;20051;-76
2022/03/18 19:40:35;;;;;;;37.80;14.75;;;;;;;;;;8443442;28;20044;-76
2022/03/18 19:44:51;;;;;;;35.00;12.82;;;;;;;;;;8446770;28;20055;-76
2022/03/18 19:49:12;;;;;;;67.43;20.88;;;;;;;;;;8430972;28;22717;-77
2022/03/18 19:53:22;;;;;;;71.32;22.83;;;;;;;;;;8443206;28;20426;-76
2022/03/18 20:01:58;;;;;;;50.45;18.20;;;;;;;;;;8444384;28;20067;-76
2022/03/18 20:06:10;;;;;;;27.55;12.50;;;;;;;;;;8443519;28;20056;-78
2022/03/18 20:10:23;;;;;;;32.70;13.73;;;;;;;;;;8426824;28;20458;-76
2022/03/18 20:14:40;;;;;;;33.60;12.45;;;;;;;;;;8442947;28;20461;-76
2022/03/18 20:18:48;;;;;;;63.40;23.33;;;;;;;;;;8443898;28;20519;-75
2022/03/18 20:22:58;;;;;;;89.03;30.02;;;;;;;;;;8447728;28;20066;-76
2022/03/18 20:27:11;;;;;;;82.15;28.17;;;;;;;;;;8442404;28;20407;-76
2022/03/18 20:31:37;;;;;;;47.53;19.95;;;;;;;;;;8443377;28;20044;-78
2022/03/18 20:35:57;;;;;;;46.58;18.20;;;;;;;;;;8438729;28;20388;-76
2022/03/18 20:40:08;;;;;;;31.73;12.43;;;;;;;;;;8445261;28;20500;-75
2022/03/18 20:44:20;;;;;;;33.67;15.30;;;;;;;;;;8441922;28;20044;-75
2022/03/18 20:48:30;;;;;;;38.20;12.50;;;;;;;;;;8462001;28;20040;-75
2022/03/18 20:52:34;;;;;;;32.67;15.25;;;;;;;;;;8461855;28;20047;-75
2022/03/18 20:56:37;;;;;;;32.30;12.77;;;;;;;;;;8461721;28;20050;-74
2022/03/18 21:00:40;;;;;;;29.08;12.65;;;;;;;;;;8461192;28;20047;-76
2022/03/18 21:04:45;;;;;;;246.40;57.33;;;;;;;;;;8466087;28;20096;-76
2022/03/18 21:08:49;;;;;;;29.52;13.07;;;;;;;;;;8467950;28;20063;-75
2022/03/18 21:12:52;;;;;;;25.88;13.98;;;;;;;;;;8467773;28;20050;-76
2022/03/18 21:21:15;;;;;;;410.30;104.55;;;;;;;;;;8466596;28;20453;-77
2022/03/18 21:30:38;;;;;;;109.18;36.85;;;;;;;;;;8467950;28;20043;-75
2022/03/18 21:34:03;;;;;;;25.95;11.05;;;;;;;;;;8467636;28;20495;-77
2022/03/18 21:38:08;;;;;;;25.75;11.38;;;;;;;;;;8467299;28;20047;-74
2022/03/18 21:42:11;;;;;;;346.77;81.25;;;;;;;;;;8467831;28;20584;-75
2022/03/18 21:46:14;;;;;;;169.85;44.83;;;;;;;;;;8466690;28;20043;-76
2022/03/18 21:50:17;;;;;;;89.65;27.08;;;;;;;;;;8466878;28;20437;-75
2022/03/18 21:54:22;;;;;;;41.65;15.80;;;;;;;;;;8466467;28;20125;-77
2022/03/18 21:58:25;;;;;;;38.85;15.02;;;;;;;;;;8466386;28;20483;-75
2022/03/18 22:02:29;;;;;;;32.05;13.45;;;;;;;;;;8466248;28;20704;-75
2022/03/18 22:06:33;;;;;;;27.60;10.68;;;;;;;;;;8465943;28;20047;-75
2022/03/18 22:10:37;;;;;;;23.80;10.98;;;;;;;;;;8465815;28;20044;-76
2022/03/18 22:14:40;;;;;;;30.95;15.23;;;;;;;;;;8466149;28;20050;-75
2022/03/18 22:18:43;;;;;;;39.13;15.93;;;;;;;;;;8465418;28;20058;-74
2022/03/18 22:22:45;;;;;;;29.15;11.00;;;;;;;;;;8466127;28;20501;-76
2022/03/18 22:26:49;;;;;;;23.60;10.77;;;;;;;;;;8462739;28;20050;-74
2022/03/18 22:30:52;;;;;;;36.25;13.43;;;;;;;;;;8431461;28;20048;-75
2022/03/18 22:34:55;;;;;;;263.15;56.42;;;;;;;;;;8431861;28;20800;-75
2022/03/18 22:38:57;;;;;;;27.20;11.10;;;;;;;;;;8431381;28;20502;-75
2022/03/18 22:43:01;;;;;;;25.40;10.82;;;;;;;;;;8450001;28;20472;-76
2022/03/18 22:47:07;;;;;;;29.23;11.88;;;;;;;;;;8459620;28;20047;-76
2022/03/18 22:51:12;;;;;;;34.13;14.70;;;;;;;;;;8459006;28;20134;-76
2022/03/18 22:55:17;;;;;;;29.58;15.13;;;;;;;;;;8455877;28;20052;-75
2022/03/18 22:59:27;;;;;;;49.65;17.55;;;;;;;;;;8451167;28;20483;-76
2022/03/18 23:03:34;;;;;;;29.23;11.80;;;;;;;;;;8451231;28;20372;-76
2022/03/18 23:07:39;;;;;;;27.50;11.80;;;;;;;;;;8446837;28;20142;-75
2022/03/18 23:16:04;;;;;;;29.15;12.50;;;;;;;;;;8459091;28;20487;-77
2022/03/18 23:20:08;;;;;;;24.77;11.02;;;;;;;;;;8456140;28;20039;-76
2022/03/18 23:24:11;;;;;;;27.35;10.85;;;;;;;;;;8453482;28;20040;-76
2022/03/18 23:28:14;;;;;;;31.77;11.32;;;;;;;;;;8458983;28;20040;-76
2022/03/18 23:32:21;;;;;;;26.52;11.07;;;;;;;;;;8457927;28;20131;-75
2022/03/18 23:36:25;;;;;;;25.52;12.30;;;;;;;;;;8456271;28;20051;-76
2022/03/18 23:40:27;;;;;;;49.33;16.23;;;;;;;;;;8457200;28;20054;-75
2022/03/18 23:44:30;;;;;;;282.52;68.72;;;;;;;;;;8454119;28;20054;-76
2022/03/18 23:48:34;;;;;;;21.23;11.23;;;;;;;;;;8460614;28;20047;-75
2022/03/18 23:52:37;;;;;;;24.95;10.25;;;;;;;;;;8463182;28;20466;-75
2022/03/18 23:56:40;;;;;;;41.40;16.73;;;;;;;;;;8463336;28;20051;-76
